sensor_id;sensor_type;location;lat;lon;timestamp;P1;durP1;ratioP1;P2;durP2;ratioP2
20535;SDS011;10426;49.420;8.390;2024-02-21T00:00:04;8.88;;;4.13;;
20535;SDS011;10426;49.420;8.390;2024-02-21T00:02:31;10.10;;;4.30;;
20535;SDS011;10426;49.420;8.390;2024-02-21T00:04:58;10.20;;;4.10;;
20535;SDS011;10426;49.420;8.390;2024-02-21T00:07:25;8.88;;;4.13;;
20535;SDS011;10426;49.420;8.390;2024-02-21T00:09:51;8.85;;;4.40;;
20535;SDS011;10426;49.420;8.390;2024-02-21T00:12:19;10.57;;;4.75;;
20535;SDS011;10426;49.420;8.390;2024-02-21T00:14:46;10.38;;;4.20;;
20535;SDS011;10426;49.420;8.390;2024-02-21T00:17:12;9.13;;;4.30;;
20535;SDS011;10426;49.420;8.390;2024-02-21T00:19:39;10.50;;;4.25;;
20535;SDS011;10426;49.420;8.390;2024-02-21T00:22:06;8.40;;;3.97;;
20535;SDS011;10426;49.420;8.390;2024-02-21T00:24:33;9.55;;;4.00;;
20535;SDS011;10426;49.420;8.390;2024-02-21T00:27:00;13.37;;;5.30;;
20535;SDS011;10426;49.420;8.390;2024-02-21T00:29:28;14.93;;;5.65;;
20535;SDS011;10426;49.420;8.390;2024-02-21T00:31:55;10.55;;;4.40;;
20535;SDS011;10426;49.420;8.390;2024-02-21T00:34:21;11.57;;;4.60;;
20535;SDS011;10426;49.420;8.390;2024-02-21T00:36:48;10.52;;;3.95;;
20535;SDS011;10426;49.420;8.390;2024-02-21T00:39:15;9.73;;;4.13;;
20535;SDS011;10426;49.420;8.390;2024-02-21T00:41:42;9.50;;;4.25;;
20535;SDS011;10426;49.420;8.390;2024-02-21T00:44:08;11.30;;;4.47;;
20535;SDS011;10426;49.420;8.390;2024-02-21T00:46:37;12.30;;;4.57;;
20535;SDS011;10426;49.420;8.390;2024-02-21T00:49:04;8.95;;;4.10;;
20535;SDS011;10426;49.420;8.390;2024-02-21T00:51:30;8.13;;;3.85;;
20535;SDS011;10426;49.420;8.390;2024-02-21T00:53:57;10.50;;;4.07;;
20535;SDS011;10426;49.420;8.390;2024-02-21T00:56:24;9.57;;;3.67;;
20535;SDS011;10426;49.420;8.390;2024-02-21T00:58:50;11.63;;;4.20;;
20535;SDS011;10426;49.420;8.390;2024-02-21T01:01:20;11.60;;;4.05;;
20535;SDS011;10426;49.420;8.390;2024-02-21T01:03:49;13.48;;;4.68;;
20535;SDS011;10426;49.420;8.390;2024-02-21T01:06:16;10.50;;;4.57;;
20535;SDS011;10426;49.420;8.390;2024-02-21T01:08:43;9.10;;;4.57;;
20535;SDS011;10426;49.420;8.390;2024-02-21T01:11:09;11.50;;;5.20;;
20535;SDS011;10426;49.420;8.390;2024-02-21T01:13:36;7.47;;;4.10;;
20535;SDS011;10426;49.420;8.390;2024-02-21T01:16:03;10.60;;;4.38;;
20535;SDS011;10426;49.420;8.390;2024-02-21T01:18:30;9.63;;;4.10;;
20535;SDS011;10426;49.420;8.390;2024-02-21T01:20:57;9.85;;;3.88;;
20535;SDS011;10426;49.420;8.390;2024-02-21T01:23:24;8.07;;;3.75;;
20535;SDS011;10426;49.420;8.390;2024-02-21T01:25:51;9.23;;;4.07;;
20535;SDS011;10426;49.420;8.390;2024-02-21T01:28:17;9.02;;;4.10;;
20535;SDS011;10426;49.420;8.390;2024-02-21T01:30:44;9.85;;;3.95;;
20535;SDS011;10426;49.420;8.390;2024-02-21T01:33:11;10.23;;;3.95;;
20535;SDS011;10426;49.420;8.390;2024-02-21T01:35:37;7.97;;;4.20;;
20535;SDS011;10426;49.420;8.390;2024-02-21T01:38:05;9.05;;;3.80;;
20535;SDS011;10426;49.420;8.390;2024-02-21T01:40:32;8.70;;;4.07;;
20535;SDS011;10426;49.420;8.390;2024-02-21T01:42:58;9.57;;;4.00;;
20535;SDS011;10426;49.420;8.390;2024-02-21T01:45:25;7.50;;;4.00;;
20535;SDS011;10426;49.420;8.390;2024-02-21T01:47:52;10.48;;;4.13;;
20535;SDS011;10426;49.420;8.390;2024-02-21T01:50:18;9.27;;;4.05;;
20535;SDS011;10426;49.420;8.390;2024-02-21T01:52:46;9.85;;;3.70;;
20535;SDS011;10426;49.420;8.390;2024-02-21T01:55:14;8.63;;;3.67;;
20535;SDS011;10426;49.420;8.390;2024-02-21T01:57:42;8.65;;;3.70;;
20535;SDS011;10426;49.420;8.390;2024-02-21T02:00:11;6.78;;;4.15;;
20535;SDS011;10426;49.420;8.390;2024-02-21T02:02:38;12.25;;;5.25;;
20535;SDS011;10426;49.420;8.390;2024-02-21T02:05:05;16.35;;;6.32;;
20535;SDS011;10426;49.420;8.390;2024-02-21T02:07:32;14.00;;;5.28;;
20535;SDS011;10426;49.420;8.390;2024-02-21T02:09:59;24.63;;;8.68;;
20535;SDS011;10426;49.420;8.390;2024-02-21T02:12:27;21.05;;;7.47;;
20535;SDS011;10426;49.420;8.390;2024-02-21T02:14:57;12.00;;;4.30;;
20535;SDS011;10426;49.420;8.390;2024-02-21T02:17:24;8.60;;;4.07;;
20535;SDS011;10426;49.420;8.390;2024-02-21T02:19:50;11.13;;;4.10;;
20535;SDS011;10426;49.420;8.390;2024-02-21T02:22:18;9.57;;;3.80;;
20535;SDS011;10426;49.420;8.390;2024-02-21T02:24:49;7.45;;;3.60;;
20535;SDS011;10426;49.420;8.390;2024-02-21T02:27:16;8.90;;;3.70;;
20535;SDS011;10426;49.420;8.390;2024-02-21T02:29:42;9.05;;;3.90;;
20535;SDS011;10426;49.420;8.390;2024-02-21T02:32:09;12.67;;;3.90;;
20535;SDS011;10426;49.420;8.390;2024-02-21T02:34:35;10.18;;;4.00;;
20535;SDS011;10426;49.420;8.390;2024-02-21T02:37:02;8.50;;;3.53;;
20535;SDS011;10426;49.420;8.390;2024-02-21T02:39:29;10.05;;;4.05;;
20535;SDS011;10426;49.420;8.390;2024-02-21T02:41:57;9.80;;;3.80;;
20535;SDS011;10426;49.420;8.390;2024-02-21T02:44:24;11.30;;;4.43;;
20535;SDS011;10426;49.420;8.390;2024-02-21T02:46:50;10.32;;;4.30;;
20535;SDS011;10426;49.420;8.390;2024-02-21T02:49:17;13.20;;;4.25;;
20535;SDS011;10426;49.420;8.390;2024-02-21T02:51:43;8.33;;;3.77;;
20535;SDS011;10426;49.420;8.390;2024-02-21T02:54:10;10.50;;;4.20;;
20535;SDS011;10426;49.420;8.390;2024-02-21T02:56:37;10.45;;;3.75;;
20535;SDS011;10426;49.420;8.390;2024-02-21T02:59:05;11.05;;;3.80;;
20535;SDS011;10426;49.420;8.390;2024-02-21T03:01:33;7.35;;;3.70;;
20535;SDS011;10426;49.420;8.390;2024-02-21T03:04:00;6.47;;;3.63;;
20535;SDS011;10426;49.420;8.390;2024-02-21T03:06:26;8.27;;;4.00;;
20535;SDS011;10426;49.420;8.390;2024-02-21T03:08:53;9.83;;;4.33;;
20535;SDS011;10426;49.420;8.390;2024-02-21T03:11:20;8.40;;;3.80;;
20535;SDS011;10426;49.420;8.390;2024-02-21T03:13:54;8.97;;;3.93;;
20535;SDS011;10426;49.420;8.390;2024-02-21T03:16:22;8.10;;;3.70;;
20535;SDS011;10426;49.420;8.390;2024-02-21T03:18:49;10.17;;;3.70;;
20535;SDS011;10426;49.420;8.390;2024-02-21T03:21:15;10.05;;;3.60;;
20535;SDS011;10426;49.420;8.390;2024-02-21T03:23:42;9.27;;;4.10;;
20535;SDS011;10426;49.420;8.390;2024-02-21T03:26:08;8.47;;;3.50;;
20535;SDS011;10426;49.420;8.390;2024-02-21T03:28:35;9.93;;;4.20;;
20535;SDS011;10426;49.420;8.390;2024-02-21T03:31:02;6.53;;;3.70;;
20535;SDS011;10426;49.420;8.390;2024-02-21T03:33:30;8.77;;;3.77;;
20535;SDS011;10426;49.420;8.390;2024-02-21T03:35:56;9.47;;;4.10;;
20535;SDS011;10426;49.420;8.390;2024-02-21T03:38:23;8.20;;;3.72;;
20535;SDS011;10426;49.420;8.390;2024-02-21T03:40:49;9.40;;;3.95;;
20535;SDS011;10426;49.420;8.390;2024-02-21T03:43:16;7.93;;;3.60;;
20535;SDS011;10426;49.420;8.390;2024-02-21T03:45:43;8.30;;;4.00;;
20535;SDS011;10426;49.420;8.390;2024-02-21T03:48:09;9.45;;;3.70;;
20535;SDS011;10426;49.420;8.390;2024-02-21T03:50:37;8.75;;;4.00;;
20535;SDS011;10426;49.420;8.390;2024-02-21T03:53:04;7.55;;;3.60;;
20535;SDS011;10426;49.420;8.390;2024-02-21T03:55:30;8.45;;;4.13;;
20535;SDS011;10426;49.420;8.390;2024-02-21T03:57:57;8.52;;;3.90;;
20535;SDS011;10426;49.420;8.390;2024-02-21T04:00:24;9.23;;;3.70;;
20535;SDS011;10426;49.420;8.390;2024-02-21T04:02:50;6.95;;;3.88;;
20535;SDS011;10426;49.420;8.390;2024-02-21T04:05:17;9.43;;;4.15;;
20535;SDS011;10426;49.420;8.390;2024-02-21T04:07:45;8.88;;;4.07;;
20535;SDS011;10426;49.420;8.390;2024-02-21T04:10:11;8.27;;;3.92;;
20535;SDS011;10426;49.420;8.390;2024-02-21T04:12:38;9.87;;;3.70;;
20535;SDS011;10426;49.420;8.390;2024-02-21T04:15:05;9.27;;;4.10;;
20535;SDS011;10426;49.420;8.390;2024-02-21T04:17:32;8.38;;;3.75;;
20535;SDS011;10426;49.420;8.390;2024-02-21T04:20:01;8.23;;;3.50;;
20535;SDS011;10426;49.420;8.390;2024-02-21T04:22:30;9.98;;;3.90;;
20535;SDS011;10426;49.420;8.390;2024-02-21T04:24:58;9.30;;;3.90;;
20535;SDS011;10426;49.420;8.390;2024-02-21T04:27:25;7.15;;;3.70;;
20535;SDS011;10426;49.420;8.390;2024-02-21T04:29:52;7.43;;;3.55;;
20535;SDS011;10426;49.420;8.390;2024-02-21T04:32:19;8.30;;;3.63;;
20535;SDS011;10426;49.420;8.390;2024-02-21T04:34:46;9.10;;;4.13;;
20535;SDS011;10426;49.420;8.390;2024-02-21T04:37:12;8.00;;;3.80;;
20535;SDS011;10426;49.420;8.390;2024-02-21T04:39:39;8.35;;;3.72;;
20535;SDS011;10426;49.420;8.390;2024-02-21T04:42:07;9.38;;;4.00;;
20535;SDS011;10426;49.420;8.390;2024-02-21T04:44:34;8.48;;;3.67;;
20535;SDS011;10426;49.420;8.390;2024-02-21T04:47:00;7.35;;;3.53;;
20535;SDS011;10426;49.420;8.390;2024-02-21T04:49:28;7.90;;;3.70;;
20535;SDS011;10426;49.420;8.390;2024-02-21T04:51:55;9.90;;;3.97;;
20535;SDS011;10426;49.420;8.390;2024-02-21T04:54:22;6.87;;;3.63;;
20535;SDS011;10426;49.420;8.390;2024-02-21T04:56:48;16.70;;;4.78;;
20535;SDS011;10426;49.420;8.390;2024-02-21T04:59:16;8.95;;;3.60;;
20535;SDS011;10426;49.420;8.390;2024-02-21T05:01:43;8.90;;;4.00;;
20535;SDS011;10426;49.420;8.390;2024-02-21T05:04:09;6.47;;;3.93;;
20535;SDS011;10426;49.420;8.390;2024-02-21T05:06:37;8.07;;;3.63;;
20535;SDS011;10426;49.420;8.390;2024-02-21T05:09:03;7.80;;;3.95;;
20535;SDS011;10426;49.420;8.390;2024-02-21T05:11:30;7.50;;;3.53;;
20535;SDS011;10426;49.420;8.390;2024-02-21T05:13:57;9.43;;;3.92;;
20535;SDS011;10426;49.420;8.390;2024-02-21T05:16:25;10.20;;;3.92;;
20535;SDS011;10426;49.420;8.390;2024-02-21T05:18:51;6.55;;;3.70;;
20535;SDS011;10426;49.420;8.390;2024-02-21T05:21:18;10.63;;;3.92;;
20535;SDS011;10426;49.420;8.390;2024-02-21T05:23:45;7.22;;;3.63;;
20535;SDS011;10426;49.420;8.390;2024-02-21T05:26:12;5.75;;;3.90;;
20535;SDS011;10426;49.420;8.390;2024-02-21T05:28:46;18.98;;;8.50;;
20535;SDS011;10426;49.420;8.390;2024-02-21T05:31:12;9.15;;;4.68;;
20535;SDS011;10426;49.420;8.390;2024-02-21T05:33:41;8.02;;;4.40;;
20535;SDS011;10426;49.420;8.390;2024-02-21T05:36:07;8.30;;;4.10;;
20535;SDS011;10426;49.420;8.390;2024-02-21T05:38:34;7.68;;;3.83;;
20535;SDS011;10426;49.420;8.390;2024-02-21T05:41:01;9.23;;;4.10;;
20535;SDS011;10426;49.420;8.390;2024-02-21T05:43:27;6.10;;;3.85;;
20535;SDS011;10426;49.420;8.390;2024-02-21T05:45:54;10.65;;;4.45;;
20535;SDS011;10426;49.420;8.390;2024-02-21T05:48:21;8.00;;;4.07;;
20535;SDS011;10426;49.420;8.390;2024-02-21T05:50:49;10.35;;;4.30;;
20535;SDS011;10426;49.420;8.390;2024-02-21T05:53:16;8.07;;;4.03;;
20535;SDS011;10426;49.420;8.390;2024-02-21T05:55:43;8.57;;;3.92;;
20535;SDS011;10426;49.420;8.390;2024-02-21T05:58:09;9.55;;;4.18;;
20535;SDS011;10426;49.420;8.390;2024-02-21T06:00:39;8.55;;;4.20;;
20535;SDS011;10426;49.420;8.390;2024-02-21T06:03:05;10.90;;;4.40;;
20535;SDS011;10426;49.420;8.390;2024-02-21T06:05:36;10.75;;;4.40;;
20535;SDS011;10426;49.420;8.390;2024-02-21T06:08:04;9.88;;;4.57;;
20535;SDS011;10426;49.420;8.390;2024-02-21T06:10:31;8.40;;;4.20;;
20535;SDS011;10426;49.420;8.390;2024-02-21T06:12:58;6.07;;;3.97;;
20535;SDS011;10426;49.420;8.390;2024-02-21T06:15:24;7.93;;;4.07;;
20535;SDS011;10426;49.420;8.390;2024-02-21T06:17:51;6.95;;;4.25;;
20535;SDS011;10426;49.420;8.390;2024-02-21T06:20:18;8.68;;;4.22;;
20535;SDS011;10426;49.420;8.390;2024-02-21T06:22:44;9.52;;;4.45;;
20535;SDS011;10426;49.420;8.390;2024-02-21T06:25:12;8.43;;;4.13;;
20535;SDS011;10426;49.420;8.390;2024-02-21T06:27:39;5.97;;;4.15;;
20535;SDS011;10426;49.420;8.390;2024-02-21T06:30:06;8.50;;;4.25;;
20535;SDS011;10426;49.420;8.390;2024-02-21T06:32:32;8.77;;;4.60;;
20535;SDS011;10426;49.420;8.390;2024-02-21T06:34:59;10.63;;;4.78;;
20535;SDS011;10426;49.420;8.390;2024-02-21T06:37:27;9.45;;;4.80;;
20535;SDS011;10426;49.420;8.390;2024-02-21T06:39:53;8.57;;;4.35;;
20535;SDS011;10426;49.420;8.390;2024-02-21T06:42:21;9.50;;;5.00;;
20535;SDS011;10426;49.420;8.390;2024-02-21T06:44:51;9.67;;;4.63;;
20535;SDS011;10426;49.420;8.390;2024-02-21T06:47:17;8.50;;;4.80;;
20535;SDS011;10426;49.420;8.390;2024-02-21T06:49:48;8.48;;;4.75;;
20535;SDS011;10426;49.420;8.390;2024-02-21T06:52:14;9.55;;;4.60;;
20535;SDS011;10426;49.420;8.390;2024-02-21T06:54:42;10.40;;;4.80;;
20535;SDS011;10426;49.420;8.390;2024-02-21T06:57:09;9.27;;;4.70;;
20535;SDS011;10426;49.420;8.390;2024-02-21T06:59:37;9.10;;;4.70;;
20535;SDS011;10426;49.420;8.390;2024-02-21T07:02:03;9.15;;;4.90;;
20535;SDS011;10426;49.420;8.390;2024-02-21T07:04:30;12.60;;;5.75;;
20535;SDS011;10426;49.420;8.390;2024-02-21T07:06:56;8.88;;;5.03;;
20535;SDS011;10426;49.420;8.390;2024-02-21T07:09:23;6.83;;;4.77;;
20535;SDS011;10426;49.420;8.390;2024-02-21T07:11:50;10.20;;;6.03;;
20535;SDS011;10426;49.420;8.390;2024-02-21T07:14:17;11.45;;;6.07;;
20535;SDS011;10426;49.420;8.390;2024-02-21T07:16:45;9.82;;;5.78;;
20535;SDS011;10426;49.420;8.390;2024-02-21T07:19:12;9.55;;;5.20;;
20535;SDS011;10426;49.420;8.390;2024-02-21T07:21:39;9.10;;;5.00;;
20535;SDS011;10426;49.420;8.390;2024-02-21T07:24:07;8.10;;;4.93;;
20535;SDS011;10426;49.420;8.390;2024-02-21T07:26:34;9.05;;;5.20;;
20535;SDS011;10426;49.420;8.390;2024-02-21T07:29:00;10.30;;;5.40;;
20535;SDS011;10426;49.420;8.390;2024-02-21T07:31:27;7.47;;;5.30;;
20535;SDS011;10426;49.420;8.390;2024-02-21T07:33:55;7.85;;;5.53;;
20535;SDS011;10426;49.420;8.390;2024-02-21T07:36:27;9.05;;;5.68;;
20535;SDS011;10426;49.420;8.390;2024-02-21T07:38:54;8.32;;;4.72;;
20535;SDS011;10426;49.420;8.390;2024-02-21T07:41:20;10.48;;;5.40;;
20535;SDS011;10426;49.420;8.390;2024-02-21T07:43:47;7.90;;;4.80;;
20535;SDS011;10426;49.420;8.390;2024-02-21T07:46:14;10.57;;;5.13;;
20535;SDS011;10426;49.420;8.390;2024-02-21T07:48:41;10.35;;;4.95;;
20535;SDS011;10426;49.420;8.390;2024-02-21T07:51:09;10.88;;;5.05;;
20535;SDS011;10426;49.420;8.390;2024-02-21T07:53:35;8.32;;;4.65;;
20535;SDS011;10426;49.420;8.390;2024-02-21T07:56:02;8.88;;;4.63;;
20535;SDS011;10426;49.420;8.390;2024-02-21T07:58:28;9.43;;;4.60;;
20535;SDS011;10426;49.420;8.390;2024-02-21T08:00:55;8.32;;;4.55;;
20535;SDS011;10426;49.420;8.390;2024-02-21T08:03:22;13.63;;;5.57;;
20535;SDS011;10426;49.420;8.390;2024-02-21T08:05:48;11.00;;;5.25;;
20535;SDS011;10426;49.420;8.390;2024-02-21T08:08:16;10.27;;;4.77;;
20535;SDS011;10426;49.420;8.390;2024-02-21T08:10:45;7.67;;;4.80;;
20535;SDS011;10426;49.420;8.390;2024-02-21T08:13:12;9.55;;;4.70;;
20535;SDS011;10426;49.420;8.390;2024-02-21T08:15:38;8.05;;;4.25;;
20535;SDS011;10426;49.420;8.390;2024-02-21T08:18:06;8.88;;;4.40;;
20535;SDS011;10426;49.420;8.390;2024-02-21T08:20:33;6.78;;;4.35;;
20535;SDS011;10426;49.420;8.390;2024-02-21T08:23:00;8.40;;;4.00;;
20535;SDS011;10426;49.420;8.390;2024-02-21T08:25:28;7.60;;;3.73;;
20535;SDS011;10426;49.420;8.390;2024-02-21T08:27:59;6.77;;;3.83;;
20535;SDS011;10426;49.420;8.390;2024-02-21T08:30:25;7.05;;;3.97;;
20535;SDS011;10426;49.420;8.390;2024-02-21T08:32:52;8.67;;;3.90;;
20535;SDS011;10426;49.420;8.390;2024-02-21T08:35:19;10.20;;;4.13;;
20535;SDS011;10426;49.420;8.390;2024-02-21T08:37:47;8.35;;;4.30;;
20535;SDS011;10426;49.420;8.390;2024-02-21T08:40:14;14.53;;;6.23;;
20535;SDS011;10426;49.420;8.390;2024-02-21T08:42:44;11.13;;;4.80;;
20535;SDS011;10426;49.420;8.390;2024-02-21T08:45:10;8.70;;;4.50;;
20535;SDS011;10426;49.420;8.390;2024-02-21T08:47:39;8.70;;;4.22;;
20535;SDS011;10426;49.420;8.390;2024-02-21T08:50:06;9.00;;;4.10;;
20535;SDS011;10426;49.420;8.390;2024-02-21T08:52:33;10.07;;;4.55;;
20535;SDS011;10426;49.420;8.390;2024-02-21T08:54:59;8.98;;;4.30;;
20535;SDS011;10426;49.420;8.390;2024-02-21T08:57:26;9.48;;;4.20;;
20535;SDS011;10426;49.420;8.390;2024-02-21T08:59:54;9.05;;;4.00;;
20535;SDS011;10426;49.420;8.390;2024-02-21T09:02:21;9.57;;;5.60;;
20535;SDS011;10426;49.420;8.390;2024-02-21T09:04:48;8.45;;;4.47;;
20535;SDS011;10426;49.420;8.390;2024-02-21T09:07:15;7.50;;;3.95;;
20535;SDS011;10426;49.420;8.390;2024-02-21T09:09:41;7.05;;;4.03;;
20535;SDS011;10426;49.420;8.390;2024-02-21T09:12:08;9.77;;;4.22;;
20535;SDS011;10426;49.420;8.390;2024-02-21T09:14:36;9.10;;;3.92;;
20535;SDS011;10426;49.420;8.390;2024-02-21T09:17:05;6.75;;;3.80;;
20535;SDS011;10426;49.420;8.390;2024-02-21T09:19:31;7.25;;;4.10;;
20535;SDS011;10426;49.420;8.390;2024-02-21T09:21:58;8.00;;;4.18;;
20535;SDS011;10426;49.420;8.390;2024-02-21T09:24:25;7.93;;;3.92;;
20535;SDS011;10426;49.420;8.390;2024-02-21T09:26:51;8.32;;;3.80;;
20535;SDS011;10426;49.420;8.390;2024-02-21T09:29:18;6.97;;;3.92;;
20535;SDS011;10426;49.420;8.390;2024-02-21T09:31:45;6.53;;;4.13;;
20535;SDS011;10426;49.420;8.390;2024-02-21T09:34:14;7.10;;;4.28;;
20535;SDS011;10426;49.420;8.390;2024-02-21T09:36:41;7.63;;;3.80;;
20535;SDS011;10426;49.420;8.390;2024-02-21T09:39:08;6.53;;;3.70;;
20535;SDS011;10426;49.420;8.390;2024-02-21T09:41:37;8.02;;;4.00;;
20535;SDS011;10426;49.420;8.390;2024-02-21T09:44:06;5.80;;;3.70;;
20535;SDS011;10426;49.420;8.390;2024-02-21T09:46:36;9.40;;;4.10;;
20535;SDS011;10426;49.420;8.390;2024-02-21T09:49:08;8.07;;;3.80;;
20535;SDS011;10426;49.420;8.390;2024-02-21T09:51:39;7.15;;;3.58;;
20535;SDS011;10426;49.420;8.390;2024-02-21T09:54:07;7.53;;;3.65;;
20535;SDS011;10426;49.420;8.390;2024-02-21T09:56:33;7.40;;;3.88;;
20535;SDS011;10426;49.420;8.390;2024-02-21T09:59:00;7.43;;;3.27;;
20535;SDS011;10426;49.420;8.390;2024-02-21T10:01:30;4.80;;;3.13;;
20535;SDS011;10426;49.420;8.390;2024-02-21T10:03:57;6.60;;;3.28;;
20535;SDS011;10426;49.420;8.390;2024-02-21T10:06:23;6.22;;;3.35;;
20535;SDS011;10426;49.420;8.390;2024-02-21T10:08:53;6.88;;;3.45;;
20535;SDS011;10426;49.420;8.390;2024-02-21T10:11:22;8.95;;;3.42;;
20535;SDS011;10426;49.420;8.390;2024-02-21T10:13:48;7.97;;;3.28;;
20535;SDS011;10426;49.420;8.390;2024-02-21T10:16:15;5.55;;;3.13;;
20535;SDS011;10426;49.420;8.390;2024-02-21T10:18:42;8.13;;;3.10;;
20535;SDS011;10426;49.420;8.390;2024-02-21T10:21:08;7.80;;;3.20;;
20535;SDS011;10426;49.420;8.390;2024-02-21T10:23:44;5.78;;;2.90;;
20535;SDS011;10426;49.420;8.390;2024-02-21T10:26:13;7.78;;;2.80;;
20535;SDS011;10426;49.420;8.390;2024-02-21T10:28:39;7.72;;;3.20;;
20535;SDS011;10426;49.420;8.390;2024-02-21T10:31:07;8.63;;;3.15;;
20535;SDS011;10426;49.420;8.390;2024-02-21T10:33:34;4.60;;;2.70;;
20535;SDS011;10426;49.420;8.390;2024-02-21T10:36:07;7.18;;;2.70;;
20535;SDS011;10426;49.420;8.390;2024-02-21T10:38:35;6.93;;;2.83;;
20535;SDS011;10426;49.420;8.390;2024-02-21T10:41:01;6.03;;;2.88;;
20535;SDS011;10426;49.420;8.390;2024-02-21T10:43:30;6.43;;;2.92;;
20535;SDS011;10426;49.420;8.390;2024-02-21T10:46:02;5.13;;;2.50;;
20535;SDS011;10426;49.420;8.390;2024-02-21T10:48:32;6.65;;;2.92;;
20535;SDS011;10426;49.420;8.390;2024-02-21T10:51:02;6.45;;;2.97;;
20535;SDS011;10426;49.420;8.390;2024-02-21T10:53:33;4.30;;;2.50;;
20535;SDS011;10426;49.420;8.390;2024-02-21T10:56:05;4.63;;;2.70;;
20535;SDS011;10426;49.420;8.390;2024-02-21T10:58:35;4.47;;;2.87;;
20535;SDS011;10426;49.420;8.390;2024-02-21T11:01:02;8.35;;;3.03;;
20535;SDS011;10426;49.420;8.390;2024-02-21T11:03:29;6.17;;;2.80;;
20535;SDS011;10426;49.420;8.390;2024-02-21T11:05:56;6.07;;;3.00;;
20535;SDS011;10426;49.420;8.390;2024-02-21T11:08:22;5.93;;;2.50;;
20535;SDS011;10426;49.420;8.390;2024-02-21T11:10:50;6.70;;;2.85;;
20535;SDS011;10426;49.420;8.390;2024-02-21T11:13:17;8.05;;;2.92;;
20535;SDS011;10426;49.420;8.390;2024-02-21T11:15:45;5.77;;;2.67;;
20535;SDS011;10426;49.420;8.390;2024-02-21T11:18:22;6.25;;;2.75;;
20535;SDS011;10426;49.420;8.390;2024-02-21T11:20:49;4.05;;;2.65;;
20535;SDS011;10426;49.420;8.390;2024-02-21T11:23:23;6.47;;;2.45;;
20535;SDS011;10426;49.420;8.390;2024-02-21T11:25:50;5.85;;;2.78;;
20535;SDS011;10426;49.420;8.390;2024-02-21T11:28:17;7.15;;;2.88;;
20535;SDS011;10426;49.420;8.390;2024-02-21T11:30:52;6.00;;;2.77;;
20535;SDS011;10426;49.420;8.390;2024-02-21T11:33:20;5.53;;;2.20;;
20535;SDS011;10426;49.420;8.390;2024-02-21T11:35:48;6.13;;;2.63;;
20535;SDS011;10426;49.420;8.390;2024-02-21T11:38:16;7.20;;;2.50;;
20535;SDS011;10426;49.420;8.390;2024-02-21T11:40:44;4.07;;;2.38;;
20535;SDS011;10426;49.420;8.390;2024-02-21T11:43:11;5.30;;;2.65;;
20535;SDS011;10426;49.420;8.390;2024-02-21T11:45:37;4.88;;;2.40;;
20535;SDS011;10426;49.420;8.390;2024-02-21T11:48:06;4.65;;;2.75;;
20535;SDS011;10426;49.420;8.390;2024-02-21T11:50:34;3.90;;;2.37;;
20535;SDS011;10426;49.420;8.390;2024-02-21T11:53:00;6.35;;;2.75;;
20535;SDS011;10426;49.420;8.390;2024-02-21T11:55:28;7.30;;;2.60;;
20535;SDS011;10426;49.420;8.390;2024-02-21T11:57:55;4.15;;;2.55;;
20535;SDS011;10426;49.420;8.390;2024-02-21T12:00:22;5.60;;;2.55;;
20535;SDS011;10426;49.420;8.390;2024-02-21T12:02:50;6.22;;;2.30;;
20535;SDS011;10426;49.420;8.390;2024-02-21T12:05:18;6.97;;;2.53;;
20535;SDS011;10426;49.420;8.390;2024-02-21T12:07:45;6.32;;;2.42;;
20535;SDS011;10426;49.420;8.390;2024-02-21T12:10:11;5.43;;;2.73;;
20535;SDS011;10426;49.420;8.390;2024-02-21T12:12:39;7.60;;;2.97;;
20535;SDS011;10426;49.420;8.390;2024-02-21T12:15:06;4.25;;;2.63;;
20535;SDS011;10426;49.420;8.390;2024-02-21T12:17:33;4.25;;;2.53;;
20535;SDS011;10426;49.420;8.390;2024-02-21T12:20:01;5.45;;;2.78;;
20535;SDS011;10426;49.420;8.390;2024-02-21T12:22:29;6.07;;;2.33;;
20535;SDS011;10426;49.420;8.390;2024-02-21T12:24:57;7.00;;;2.70;;
20535;SDS011;10426;49.420;8.390;2024-02-21T12:27:24;5.50;;;2.28;;
20535;SDS011;10426;49.420;8.390;2024-02-21T12:29:52;6.15;;;2.70;;
20535;SDS011;10426;49.420;8.390;2024-02-21T12:32:18;6.00;;;2.47;;
20535;SDS011;10426;49.420;8.390;2024-02-21T12:34:45;4.90;;;2.65;;
20535;SDS011;10426;49.420;8.390;2024-02-21T12:37:11;5.25;;;2.60;;
20535;SDS011;10426;49.420;8.390;2024-02-21T12:39:40;4.68;;;2.40;;
20535;SDS011;10426;49.420;8.390;2024-02-21T12:42:07;4.85;;;2.70;;
20535;SDS011;10426;49.420;8.390;2024-02-21T12:44:34;5.45;;;2.67;;
20535;SDS011;10426;49.420;8.390;2024-02-21T12:47:01;5.65;;;2.60;;
20535;SDS011;10426;49.420;8.390;2024-02-21T12:49:27;5.35;;;2.65;;
20535;SDS011;10426;49.420;8.390;2024-02-21T12:51:55;5.60;;;2.92;;
20535;SDS011;10426;49.420;8.390;2024-02-21T12:54:22;4.18;;;2.80;;
20535;SDS011;10426;49.420;8.390;2024-02-21T12:56:50;6.18;;;2.80;;
20535;SDS011;10426;49.420;8.390;2024-02-21T12:59:16;7.85;;;2.70;;
20535;SDS011;10426;49.420;8.390;2024-02-21T13:01:43;4.53;;;2.57;;
20535;SDS011;10426;49.420;8.390;2024-02-21T13:04:10;6.07;;;2.65;;
20535;SDS011;10426;49.420;8.390;2024-02-21T13:06:37;5.70;;;2.65;;
20535;SDS011;10426;49.420;8.390;2024-02-21T13:09:03;4.15;;;2.50;;
20535;SDS011;10426;49.420;8.390;2024-02-21T13:11:33;5.00;;;2.50;;
20535;SDS011;10426;49.420;8.390;2024-02-21T13:14:01;6.10;;;2.50;;
20535;SDS011;10426;49.420;8.390;2024-02-21T13:16:28;5.93;;;2.80;;
20535;SDS011;10426;49.420;8.390;2024-02-21T13:18:55;4.72;;;2.47;;
20535;SDS011;10426;49.420;8.390;2024-02-21T13:21:21;4.82;;;2.90;;
20535;SDS011;10426;49.420;8.390;2024-02-21T13:23:48;4.35;;;2.50;;
20535;SDS011;10426;49.420;8.390;2024-02-21T13:26:15;6.07;;;2.65;;
20535;SDS011;10426;49.420;8.390;2024-02-21T13:28:41;3.97;;;2.38;;
20535;SDS011;10426;49.420;8.390;2024-02-21T13:31:11;6.80;;;2.50;;
20535;SDS011;10426;49.420;8.390;2024-02-21T13:33:38;5.13;;;2.55;;
20535;SDS011;10426;49.420;8.390;2024-02-21T13:36:04;5.00;;;2.53;;
20535;SDS011;10426;49.420;8.390;2024-02-21T13:38:31;7.22;;;2.70;;
20535;SDS011;10426;49.420;8.390;2024-02-21T13:40:58;4.22;;;2.58;;
20535;SDS011;10426;49.420;8.390;2024-02-21T13:43:25;6.15;;;2.50;;
20535;SDS011;10426;49.420;8.390;2024-02-21T13:45:55;5.45;;;2.38;;
20535;SDS011;10426;49.420;8.390;2024-02-21T13:48:23;8.20;;;2.70;;
20535;SDS011;10426;49.420;8.390;2024-02-21T13:50:50;5.28;;;2.53;;
20535;SDS011;10426;49.420;8.390;2024-02-21T13:53:16;4.88;;;2.53;;
20535;SDS011;10426;49.420;8.390;2024-02-21T13:55:44;6.33;;;2.50;;
20535;SDS011;10426;49.420;8.390;2024-02-21T13:58:10;3.22;;;2.47;;
20535;SDS011;10426;49.420;8.390;2024-02-21T14:00:37;6.50;;;2.83;;
20535;SDS011;10426;49.420;8.390;2024-02-21T14:03:04;4.77;;;2.80;;
20535;SDS011;10426;49.420;8.390;2024-02-21T14:05:32;6.43;;;2.83;;
20535;SDS011;10426;49.420;8.390;2024-02-21T14:07:58;6.45;;;2.83;;
20535;SDS011;10426;49.420;8.390;2024-02-21T14:10:25;4.97;;;2.53;;
20535;SDS011;10426;49.420;8.390;2024-02-21T14:12:51;5.82;;;2.67;;
20535;SDS011;10426;49.420;8.390;2024-02-21T14:15:18;4.05;;;2.45;;
20535;SDS011;10426;49.420;8.390;2024-02-21T14:17:45;3.93;;;2.40;;
20535;SDS011;10426;49.420;8.390;2024-02-21T14:20:12;5.22;;;2.47;;
20535;SDS011;10426;49.420;8.390;2024-02-21T14:22:42;5.80;;;2.70;;
20535;SDS011;10426;49.420;8.390;2024-02-21T14:25:08;5.30;;;2.50;;
20535;SDS011;10426;49.420;8.390;2024-02-21T14:27:38;5.78;;;2.45;;
20535;SDS011;10426;49.420;8.390;2024-02-21T14:30:05;4.20;;;2.05;;
20535;SDS011;10426;49.420;8.390;2024-02-21T14:32:35;5.65;;;2.53;;
20535;SDS011;10426;49.420;8.390;2024-02-21T14:35:02;3.75;;;2.20;;
20535;SDS011;10426;49.420;8.390;2024-02-21T14:37:29;4.50;;;2.43;;
20535;SDS011;10426;49.420;8.390;2024-02-21T14:39:57;4.35;;;2.20;;
20535;SDS011;10426;49.420;8.390;2024-02-21T14:42:25;4.60;;;2.40;;
20535;SDS011;10426;49.420;8.390;2024-02-21T14:44:51;4.40;;;2.40;;